CheckWX is a tool to help pilots better visualize weather data.  It is not intended as a substitute for an official pre-flight weather briefing.

16:55:57 UTC

LEMG TAF
Málaga Airport
Málaga, Spain
TAF LEMG 181100Z 1812/1912 13010KT CAVOK TX26/1812Z TN16/1906Z BECMG 1818/1821 29012KT PROB40 TEMPO 1903/1909 28015G25KT

Jun-18@
12:00 UTC

Jun-18 @ 12:00 UTC

Jun-18@
18:00 UTC

Jun-18 @ 18:00 UTC

TAF LEMG 181100Z 1812/1912 13010KT CAVOK TX26/1812Z TN16/1906Z
Wind
  • 130° at 10 KTS
Cloud Levels
  • No significant clouds

Jun-18@
18:00 UTC

Jun-18 @ 18:00 UTC

Jun-19@
12:00 UTC

Jun-19 @ 12:00 UTC

BECMG 1818/1821 29012KT

Becoming

Becoming Conditions expected by Tue, Jun 18, 2019 @ 21:00 UTC

Wind
  • 290° at 12 KTS
Cloud Levels
  • No significant clouds

Jun-19@
03:00 UTC

Jun-19 @ 03:00 UTC

Jun-19@
09:00 UTC

Jun-19 @ 09:00 UTC

PROB40 TEMPO 1903/1909 28015G25KT

Temporary - 40% Likelihood

Temporary - 40% Likelihood during this time.

Wind
  • 280° at 15 KTS
  • {Gusting to 25 KTS